Time;durP1;ratioP1;P1;durP2;ratioP2;P2;SDS_P1;SDS_P2;PMS_P1;PMS_P2;Temp;Humidity;BMP_temperature;BMP_pressure;BME280_temperature;BME280_humidity;BME280_pressure;Samples;Min_cycle;Max_cycle;Signal;HPM_P1;HPM_P2
2022/07/07 00:01:49;;;;;;;;;4.67;3.00;;;;;;;;5119825;27;46686;-79
2022/07/07 00:04:14;;;;;;;;;5.00;3.67;;;;;;;;5120522;27;45427;-79
2022/07/07 00:06:39;;;;;;;;;3.00;3.00;;;;;;;;5120049;27;45594;-82
2022/07/07 00:09:05;;;;;;;;;5.00;3.67;;;;;;;;5123248;27;45383;-79
2022/07/07 00:11:31;;;;;;;;;4.33;4.33;;;;;;;;5128776;27;46532;-78
2022/07/07 00:13:56;;;;;;;;;4.00;3.00;;;;;;;;5140836;27;45356;-78
2022/07/07 00:16:22;;;;;;;;;3.00;3.00;;;;;;;;5126380;27;45199;-77
2022/07/07 00:18:47;;;;;;;;;3.00;3.00;;;;;;;;5120368;27;45336;-77
2022/07/07 00:21:12;;;;;;;;;2.00;2.00;;;;;;;;5120298;27;46184;-76
2022/07/07 00:23:38;;;;;;;;;3.00;3.00;;;;;;;;5120224;27;45385;-75
2022/07/07 00:26:03;;;;;;;;;3.33;3.33;;;;;;;;5119783;27;45355;-75
2022/07/07 00:28:29;;;;;;;;;7.33;6.00;;;;;;;;5129435;27;45432;-76
2022/07/07 00:30:54;;;;;;;;;5.00;3.00;;;;;;;;5120013;27;46653;-78
2022/07/07 00:33:19;;;;;;;;;6.00;4.33;;;;;;;;5120006;27;45489;-75
2022/07/07 00:35:45;;;;;;;;;5.00;4.00;;;;;;;;5120079;27;45529;-75
2022/07/07 00:38:10;;;;;;;;;4.00;4.00;;;;;;;;5120076;27;45748;-77
2022/07/07 00:40:36;;;;;;;;;6.00;6.00;;;;;;;;5119312;27;47537;-72
2022/07/07 00:43:01;;;;;;;;;3.67;3.67;;;;;;;;5119522;27;45571;-74
2022/07/07 00:45:27;;;;;;;;;6.33;4.00;;;;;;;;5120095;27;45400;-75
2022/07/07 00:47:52;;;;;;;;;6.33;4.33;;;;;;;;5120101;27;45398;-75
2022/07/07 00:50:18;;;;;;;;;8.00;8.00;;;;;;;;5119547;27;46457;-76
2022/07/07 00:52:43;;;;;;;;;9.00;6.00;;;;;;;;5119879;27;45738;-72
2022/07/07 00:55:08;;;;;;;;;6.33;6.33;;;;;;;;5119661;27;45340;-72
2022/07/07 00:57:34;;;;;;;;;6.00;4.00;;;;;;;;5119832;27;45418;-72
2022/07/07 01:00:04;;;;;;;;;4.67;3.67;;;;;;;;5119431;27;45410;-75
2022/07/07 01:02:29;;;;;;;;;3.00;3.00;;;;;;;;5119027;27;45401;-75
2022/07/07 01:04:55;;;;;;;;;4.00;4.00;;;;;;;;5129472;27;45823;-71
2022/07/07 01:07:20;;;;;;;;;4.00;4.00;;;;;;;;5139502;27;45369;-69
2022/07/07 01:09:46;;;;;;;;;7.67;4.00;;;;;;;;5140191;27;46192;-72
2022/07/07 01:12:11;;;;;;;;;7.00;5.67;;;;;;;;5140028;27;45570;-69
2022/07/07 01:14:38;;;;;;;;;6.67;4.67;;;;;;;;5139885;27;45450;-70
2022/07/07 01:17:03;;;;;;;;;3.67;3.67;;;;;;;;5140400;27;45326;-71
2022/07/07 01:19:28;;;;;;;;;6.00;4.33;;;;;;;;5136828;27;45998;-71
2022/07/07 01:22:01;;;;;;;;;6.00;4.67;;;;;;;;5119357;27;45223;-71
2022/07/07 01:24:27;;;;;;;;;6.67;4.00;;;;;;;;5118485;27;45387;-71
2022/07/07 01:27:04;;;;;;;;;4.00;4.00;;;;;;;;5137182;27;45411;-72
2022/07/07 01:29:33;;;;;;;;;3.00;3.00;;;;;;;;5139096;27;46076;-72
2022/07/07 01:31:58;;;;;;;;;6.33;3.33;;;;;;;;5124090;27;45543;-72
2022/07/07 01:34:23;;;;;;;;;8.67;4.33;;;;;;;;5139572;27;45510;-71
2022/07/07 01:36:48;;;;;;;;;4.00;4.00;;;;;;;;5140215;27;45440;-71
2022/07/07 01:39:14;;;;;;;;;5.67;5.00;;;;;;;;5139436;27;46353;-71
2022/07/07 01:41:39;;;;;;;;;5.00;5.00;;;;;;;;5139544;27;45496;-71
2022/07/07 01:44:04;;;;;;;;;7.33;5.00;;;;;;;;5128224;27;45397;-72
2022/07/07 01:46:29;;;;;;;;;7.33;4.00;;;;;;;;5116121;27;45460;-71
2022/07/07 01:48:55;;;;;;;;;3.00;3.00;;;;;;;;5105827;27;45498;-72
2022/07/07 01:51:20;;;;;;;;;7.00;7.00;;;;;;;;5119019;27;45304;-73
2022/07/07 01:53:45;;;;;;;;;6.67;3.67;;;;;;;;5119581;27;45395;-74
2022/07/07 01:56:10;;;;;;;;;9.00;5.33;;;;;;;;5119443;27;45669;-75
2022/07/07 01:58:36;;;;;;;;;6.33;3.67;;;;;;;;5119053;27;46986;-75
2022/07/07 02:01:01;;;;;;;;;5.67;4.00;;;;;;;;5119074;27;45340;-74
2022/07/07 02:03:26;;;;;;;;;7.00;5.67;;;;;;;;5119045;27;45395;-74
2022/07/07 02:05:52;;;;;;;;;5.00;5.00;;;;;;;;5119276;27;45606;-71
2022/07/07 02:08:17;;;;;;;;;3.00;3.00;;;;;;;;5101706;27;46680;-71
2022/07/07 02:13:26;;;;;;;;;4.00;3.00;;;;;;;;5098210;27;45485;-72
2022/07/07 02:15:51;;;;;;;;;3.00;3.00;;;;;;;;5116184;27;45422;-75
2022/07/07 02:18:17;;;;;;;;;2.33;2.33;;;;;;;;5118978;27;46444;-76
2022/07/07 02:20:43;;;;;;;;;3.00;3.00;;;;;;;;5119011;27;45307;-75
2022/07/07 02:23:08;;;;;;;;;3.00;3.00;;;;;;;;5119025;27;45575;-72
2022/07/07 02:25:34;;;;;;;;;3.33;3.00;;;;;;;;5118865;27;45245;-72
2022/07/07 02:27:59;;;;;;;;;7.33;4.00;;;;;;;;5118440;27;46386;-71
2022/07/07 02:30:24;;;;;;;;;3.00;3.00;;;;;;;;5116612;27;45203;-70
2022/07/07 02:32:49;;;;;;;;;5.67;4.67;;;;;;;;5117121;27;45298;-70
2022/07/07 02:35:15;;;;;;;;;5.33;4.00;;;;;;;;5119001;27;45265;-70
2022/07/07 02:37:40;;;;;;;;;6.33;4.00;;;;;;;;5118626;27;45495;-71
2022/07/07 02:40:05;;;;;;;;;3.67;2.33;;;;;;;;5118239;27;45451;-71
2022/07/07 02:42:31;;;;;;;;;3.67;3.67;;;;;;;;5118493;27;45218;-71
2022/07/07 02:44:56;;;;;;;;;5.00;5.00;;;;;;;;5119171;27;45416;-71
2022/07/07 02:47:21;;;;;;;;;4.67;4.00;;;;;;;;5117883;27;46498;-71
2022/07/07 02:49:46;;;;;;;;;5.00;3.00;;;;;;;;5118621;27;45429;-71
2022/07/07 02:52:11;;;;;;;;;3.33;3.33;;;;;;;;5118550;27;45253;-71
2022/07/07 02:54:37;;;;;;;;;3.00;3.00;;;;;;;;5118641;27;45213;-70
2022/07/07 02:57:02;;;;;;;;;7.33;4.33;;;;;;;;5100276;27;46729;-71
2022/07/07 02:59:27;;;;;;;;;4.33;3.00;;;;;;;;5096514;27;45421;-71
2022/07/07 03:01:52;;;;;;;;;5.67;5.00;;;;;;;;5109251;27;45373;-71
2022/07/07 03:04:18;;;;;;;;;5.00;4.00;;;;;;;;5116472;27;45492;-71
2022/07/07 03:06:43;;;;;;;;;5.33;4.33;;;;;;;;5116439;27;45520;-71
2022/07/07 03:09:08;;;;;;;;;4.33;3.00;;;;;;;;5118525;27;45527;-72
2022/07/07 03:11:33;;;;;;;;;3.00;3.00;;;;;;;;5117723;27;45211;-71
2022/07/07 03:13:58;;;;;;;;;6.00;3.67;;;;;;;;5118395;27;45456;-72
2022/07/07 03:16:24;;;;;;;;;4.00;3.00;;;;;;;;5117775;27;47251;-72
2022/07/07 03:18:49;;;;;;;;;4.67;4.00;;;;;;;;5118307;27;45290;-71
2022/07/07 03:21:14;;;;;;;;;3.00;3.00;;;;;;;;5118452;27;45470;-71
2022/07/07 03:23:39;;;;;;;;;5.00;4.00;;;;;;;;5118267;27;45320;-71
2022/07/07 03:26:04;;;;;;;;;4.00;4.00;;;;;;;;5105537;27;47250;-73
2022/07/07 03:28:30;;;;;;;;;4.67;4.00;;;;;;;;5097104;27;45537;-69
2022/07/07 03:30:55;;;;;;;;;5.00;4.00;;;;;;;;5097434;27;45335;-69
2022/07/07 03:33:20;;;;;;;;;5.00;4.00;;;;;;;;5097771;27;45346;-68
2022/07/07 03:35:45;;;;;;;;;4.33;4.33;;;;;;;;5097448;27;46399;-70
2022/07/07 03:38:11;;;;;;;;;3.67;3.67;;;;;;;;5097358;27;45384;-70
2022/07/07 03:40:36;;;;;;;;;7.33;5.33;;;;;;;;5097236;27;45509;-69
2022/07/07 03:43:02;;;;;;;;;8.00;8.00;;;;;;;;5097604;27;45359;-72
2022/07/07 03:45:27;;;;;;;;;4.00;3.00;;;;;;;;5106142;27;46405;-69
2022/07/07 03:47:52;;;;;;;;;3.33;3.33;;;;;;;;5117312;27;45293;-71
2022/07/07 03:50:17;;;;;;;;;3.00;3.00;;;;;;;;5121651;27;45263;-71
2022/07/07 03:52:43;;;;;;;;;5.00;3.00;;;;;;;;5121455;27;45456;-72
2022/07/07 03:55:08;;;;;;;;;11.00;11.00;;;;;;;;5117303;27;47294;-71
2022/07/07 03:57:34;;;;;;;;;7.67;4.67;;;;;;;;5100469;27;45486;-71
2022/07/07 03:59:59;;;;;;;;;3.67;3.33;;;;;;;;5100744;27;45230;-71
2022/07/07 04:02:24;;;;;;;;;6.00;3.33;;;;;;;;5100690;27;45764;-72
2022/07/07 04:04:49;;;;;;;;;3.00;3.00;;;;;;;;5100046;27;46477;-72
2022/07/07 04:07:16;;;;;;;;;3.33;3.00;;;;;;;;5100350;27;45371;-72
2022/07/07 04:09:41;;;;;;;;;7.33;3.00;;;;;;;;5100698;27;45290;-74
2022/07/07 04:12:07;;;;;;;;;3.00;3.00;;;;;;;;5100686;27;45375;-73
2022/07/07 04:14:32;;;;;;;;;3.00;3.00;;;;;;;;5112227;27;46379;-73
2022/07/07 04:16:57;;;;;;;;;2.00;2.00;;;;;;;;5120773;27;45214;-72
2022/07/07 04:19:22;;;;;;;;;3.67;3.00;;;;;;;;5121151;27;45292;-71
2022/07/07 04:21:48;;;;;;;;;3.67;2.00;;;;;;;;5117347;27;45402;-72
2022/07/07 04:24:13;;;;;;;;;2.00;2.00;;;;;;;;5118914;27;46548;-71
2022/07/07 04:26:38;;;;;;;;;3.00;3.00;;;;;;;;5120911;27;45259;-72
2022/07/07 04:29:04;;;;;;;;;2.67;2.67;;;;;;;;5120633;27;45828;-71
2022/07/07 04:31:29;;;;;;;;;12.00;9.00;;;;;;;;5120952;27;45333;-71
2022/07/07 04:33:54;;;;;;;;;3.00;3.00;;;;;;;;5120563;27;46358;-69
2022/07/07 04:36:19;;;;;;;;;4.33;3.00;;;;;;;;5118813;27;45692;-72
2022/07/07 04:38:45;;;;;;;;;3.67;2.00;;;;;;;;5120874;27;45467;-71
2022/07/07 04:41:10;;;;;;;;;3.33;3.33;;;;;;;;5120379;27;45415;-72
2022/07/07 04:43:35;;;;;;;;;3.00;3.00;;;;;;;;5120478;27;45335;-71
2022/07/07 04:46:00;;;;;;;;;3.50;3.50;;;;;;;;5113372;27;45435;-71
2022/07/07 04:48:25;;;;;;;;;2.00;2.00;;;;;;;;5099972;27;45338;-72
2022/07/07 04:50:51;;;;;;;;;4.67;4.00;;;;;;;;5100125;27;45454;-71
2022/07/07 04:53:16;;;;;;;;;6.67;5.33;;;;;;;;5099853;27;46509;-72
2022/07/07 04:55:41;;;;;;;;;3.00;2.33;;;;;;;;5120490;27;45271;-72
2022/07/07 04:58:06;;;;;;;;;4.00;4.00;;;;;;;;5119923;27;45348;-72
2022/07/07 05:00:32;;;;;;;;;5.00;4.00;;;;;;;;5119293;27;45374;-72
2022/07/07 05:02:57;;;;;;;;;3.00;3.00;;;;;;;;5119918;27;46455;-72
2022/07/07 05:05:22;;;;;;;;;4.00;2.67;;;;;;;;5119931;27;45307;-72
2022/07/07 05:07:47;;;;;;;;;3.00;3.00;;;;;;;;5120433;27;45336;-72
2022/07/07 05:10:12;;;;;;;;;5.00;3.00;;;;;;;;5120174;27;45475;-72
2022/07/07 05:12:38;;;;;;;;;3.67;3.67;;;;;;;;5119614;27;45390;-72
2022/07/07 05:15:03;;;;;;;;;3.33;3.33;;;;;;;;5119736;27;45367;-73
2022/07/07 05:17:28;;;;;;;;;4.00;2.67;;;;;;;;5119212;27;45746;-74
2022/07/07 05:19:53;;;;;;;;;4.00;4.00;;;;;;;;5099892;27;45309;-73
2022/07/07 05:22:19;;;;;;;;;3.00;1.00;;;;;;;;5099133;27;46481;-72
2022/07/07 05:24:44;;;;;;;;;3.00;2.00;;;;;;;;5098982;27;45606;-71
2022/07/07 05:27:09;;;;;;;;;4.67;2.00;;;;;;;;5110663;27;45195;-71
2022/07/07 05:29:34;;;;;;;;;3.67;3.00;;;;;;;;5119685;27;45212;-71
2022/07/07 05:32:00;;;;;;;;;5.33;5.33;;;;;;;;5117900;27;45541;-71
2022/07/07 05:34:25;;;;;;;;;6.00;2.00;;;;;;;;5119772;27;45503;-73
2022/07/07 05:36:50;;;;;;;;;3.00;3.00;;;;;;;;5120021;27;45276;-72
2022/07/07 05:39:15;;;;;;;;;5.00;3.00;;;;;;;;5119786;27;45358;-71
2022/07/07 05:41:41;;;;;;;;;4.33;2.33;;;;;;;;5119213;27;46131;-71
2022/07/07 05:44:06;;;;;;;;;4.33;4.33;;;;;;;;5119699;27;45293;-71
2022/07/07 05:46:32;;;;;;;;;4.33;3.00;;;;;;;;5119117;27;45305;-70
2022/07/07 05:48:57;;;;;;;;;3.67;2.00;;;;;;;;5120000;27;45315;-71
2022/07/07 05:51:22;;;;;;;;;3.67;2.00;;;;;;;;5116565;27;46301;-70
2022/07/07 05:53:47;;;;;;;;;1.00;1.00;;;;;;;;5098537;27;45414;-71
2022/07/07 05:56:13;;;;;;;;;2.00;2.00;;;;;;;;5098961;27;45270;-70
2022/07/07 05:58:38;;;;;;;;;2.33;2.00;;;;;;;;5103246;27;45399;-71
2022/07/07 06:01:03;;;;;;;;;3.33;3.00;;;;;;;;5117884;27;45405;-69
2022/07/07 06:03:28;;;;;;;;;2.33;2.00;;;;;;;;5119057;27;45304;-70
2022/07/07 06:05:53;;;;;;;;;1.00;1.00;;;;;;;;5119265;27;45180;-69
2022/07/07 06:08:19;;;;;;;;;1.00;1.00;;;;;;;;5119388;27;45327;-69
2022/07/07 06:10:45;;;;;;;;;0.33;0.33;;;;;;;;5118964;27;46125;-69
2022/07/07 06:13:10;;;;;;;;;3.33;3.00;;;;;;;;5115562;27;45307;-70
2022/07/07 06:15:35;;;;;;;;;1.00;1.00;;;;;;;;5098317;27;45295;-70
2022/07/07 06:18:01;;;;;;;;;2.67;1.67;;;;;;;;5098373;27;45578;-70
2022/07/07 06:20:27;;;;;;;;;2.00;2.00;;;;;;;;5098165;27;45582;-69
2022/07/07 06:22:52;;;;;;;;;1.00;1.00;;;;;;;;5106332;27;45431;-69
2022/07/07 06:25:18;;;;;;;;;0.00;0.00;;;;;;;;5118747;27;45351;-70
2022/07/07 06:27:43;;;;;;;;;2.00;0.00;;;;;;;;5119036;27;45275;-70
2022/07/07 06:30:09;;;;;;;;;0.00;0.00;;;;;;;;5118342;27;46181;-69
2022/07/07 06:32:35;;;;;;;;;0.00;0.00;;;;;;;;5118526;27;45272;-70
2022/07/07 06:35:00;;;;;;;;;1.00;0.00;;;;;;;;5117436;27;45336;-71
2022/07/07 06:37:26;;;;;;;;;1.33;0.00;;;;;;;;5101104;27;45436;-68
2022/07/07 06:39:51;;;;;;;;;1.33;1.33;;;;;;;;5097964;27;46228;-69
2022/07/07 06:42:16;;;;;;;;;0.00;0.00;;;;;;;;5097956;27;45410;-69
2022/07/07 06:44:41;;;;;;;;;0.00;0.00;;;;;;;;5097997;27;45457;-70
2022/07/07 06:47:07;;;;;;;;;0.00;0.00;;;;;;;;5098412;27;45398;-69
2022/07/07 06:49:32;;;;;;;;;1.00;0.00;;;;;;;;5097710;27;46277;-71
2022/07/07 06:51:57;;;;;;;;;0.00;0.00;;;;;;;;5107453;27;45445;-71
2022/07/07 06:54:23;;;;;;;;;1.00;0.00;;;;;;;;5118537;27;45231;-71
2022/07/07 06:56:48;;;;;;;;;0.00;0.00;;;;;;;;5118777;27;45280;-71
2022/07/07 06:59:13;;;;;;;;;2.67;0.67;;;;;;;;5118106;27;46323;-71
2022/07/07 07:01:39;;;;;;;;;0.00;0.00;;;;;;;;5116887;27;45458;-72
2022/07/07 07:04:05;;;;;;;;;0.00;0.00;;;;;;;;5108623;27;45237;-73
2022/07/07 07:06:30;;;;;;;;;0.00;0.00;;;;;;;;5105581;27;45445;-72
2022/07/07 07:08:55;;;;;;;;;1.00;1.00;;;;;;;;5118271;27;46613;-73
2022/07/07 07:11:21;;;;;;;;;1.00;1.00;;;;;;;;5117837;27;45484;-71
2022/07/07 07:13:47;;;;;;;;;1.00;1.00;;;;;;;;5118355;27;45433;-68
2022/07/07 07:16:13;;;;;;;;;0.33;0.00;;;;;;;;5118271;27;45523;-68
2022/07/07 07:18:38;;;;;;;;;0.00;0.00;;;;;;;;5117390;27;46466;-69
2022/07/07 07:21:03;;;;;;;;;0.00;0.00;;;;;;;;5118228;27;45310;-69
2022/07/07 07:23:29;;;;;;;;;1.00;0.00;;;;;;;;5120273;27;45350;-68
2022/07/07 07:25:54;;;;;;;;;0.00;0.00;;;;;;;;5122156;27;45298;-68
2022/07/07 07:28:19;;;;;;;;;0.00;0.00;;;;;;;;5121901;27;45788;-68
2022/07/07 07:30:44;;;;;;;;;1.33;0.00;;;;;;;;5119851;27;45294;-69
2022/07/07 07:33:10;;;;;;;;;0.33;0.00;;;;;;;;5121728;27;45905;-70
2022/07/07 07:35:35;;;;;;;;;0.33;0.00;;;;;;;;5121827;27;45297;-70
2022/07/07 07:38:00;;;;;;;;;0.00;0.00;;;;;;;;5108645;27;46187;-71
2022/07/07 07:40:26;;;;;;;;;0.00;0.00;;;;;;;;5100840;27;45153;-70
2022/07/07 07:42:51;;;;;;;;;0.00;0.00;;;;;;;;5101001;27;45453;-71
2022/07/07 07:45:16;;;;;;;;;0.67;0.00;;;;;;;;5102735;27;45212;-69
2022/07/07 07:47:43;;;;;;;;;4.33;4.00;;;;;;;;5121277;27;46489;-69
2022/07/07 07:50:12;;;;;;;;;0.33;0.33;;;;;;;;5120625;27;45398;-68
2022/07/07 07:52:39;;;;;;;;;1.00;0.00;;;;;;;;5121300;27;45368;-68
2022/07/07 07:55:05;;;;;;;;;0.00;0.00;;;;;;;;5121492;27;45412;-69
2022/07/07 07:57:30;;;;;;;;;4.33;2.67;;;;;;;;5103883;27;46343;-68
2022/07/07 07:59:56;;;;;;;;;0.00;0.00;;;;;;;;5100365;27;45306;-68
2022/07/07 08:02:21;;;;;;;;;0.00;0.00;;;;;;;;5099591;27;45436;-68
2022/07/07 08:04:46;;;;;;;;;1.00;0.00;;;;;;;;5100707;27;45215;-68
2022/07/07 08:07:11;;;;;;;;;0.00;0.00;;;;;;;;5100938;27;45444;-69
2022/07/07 08:09:36;;;;;;;;;0.33;0.33;;;;;;;;5101577;27;45229;-68
2022/07/07 08:12:02;;;;;;;;;0.00;0.00;;;;;;;;5100615;27;45445;-69
2022/07/07 08:14:27;;;;;;;;;0.00;0.00;;;;;;;;5100911;27;45325;-69
2022/07/07 08:16:52;;;;;;;;;1.00;1.00;;;;;;;;5099973;27;45488;-68
2022/07/07 08:19:19;;;;;;;;;2.00;1.00;;;;;;;;5115390;27;45744;-69
2022/07/07 08:21:48;;;;;;;;;0.00;0.00;;;;;;;;5121086;27;45527;-69
2022/07/07 08:24:13;;;;;;;;;0.00;0.00;;;;;;;;5121090;27;45404;-70
2022/07/07 08:26:39;;;;;;;;;0.00;0.00;;;;;;;;5120538;27;45914;-69
2022/07/07 08:29:04;;;;;;;;;0.33;0.00;;;;;;;;5119914;27;45476;-69
2022/07/07 08:31:30;;;;;;;;;0.00;0.00;;;;;;;;5120826;27;45495;-69
2022/07/07 08:33:55;;;;;;;;;2.00;0.00;;;;;;;;5120347;27;45370;-69
2022/07/07 08:36:20;;;;;;;;;0.00;0.00;;;;;;;;5119707;27;45432;-69
2022/07/07 08:38:46;;;;;;;;;2.00;0.67;;;;;;;;5120405;27;45330;-69
2022/07/07 08:41:11;;;;;;;;;3.67;3.67;;;;;;;;5120624;27;45206;-69
2022/07/07 08:43:36;;;;;;;;;5.00;3.67;;;;;;;;5120627;27;45512;-69
2022/07/07 08:46:02;;;;;;;;;1.67;1.00;;;;;;;;5109602;27;45371;-70
2022/07/07 08:48:27;;;;;;;;;0.00;0.00;;;;;;;;5104676;27;45372;-70
2022/07/07 08:50:53;;;;;;;;;0.67;0.67;;;;;;;;5120714;27;45439;-70
2022/07/07 08:53:18;;;;;;;;;0.00;0.00;;;;;;;;5102687;27;46698;-69
2022/07/07 08:55:45;;;;;;;;;1.00;0.00;;;;;;;;5099606;27;46048;-70
2022/07/07 08:58:10;;;;;;;;;0.33;0.33;;;;;;;;5099638;27;45378;-71
2022/07/07 09:00:36;;;;;;;;;1.00;1.00;;;;;;;;5099276;27;45639;-71
2022/07/07 09:03:05;;;;;;;;;1.00;1.00;;;;;;;;5100079;27;45339;-71
2022/07/07 09:05:37;;;;;;;;;1.00;1.00;;;;;;;;5119766;27;46547;-72
2022/07/07 09:08:15;;;;;;;;;0.00;0.00;;;;;;;;5113310;27;45309;-70
2022/07/07 09:10:42;;;;;;;;;3.00;2.00;;;;;;;;5119249;27;45314;-72
2022/07/07 09:13:22;;;;;;;;;2.00;0.00;;;;;;;;5119923;27;45955;-71
2022/07/07 09:15:48;;;;;;;;;1.00;1.00;;;;;;;;5119890;27;46419;-71
2022/07/07 09:18:28;;;;;;;;;1.67;1.00;;;;;;;;5119825;27;45399;-71
2022/07/07 09:20:53;;;;;;;;;1.00;1.00;;;;;;;;5120317;27;45324;-70
2022/07/07 09:23:18;;;;;;;;;1.00;1.00;;;;;;;;5111336;27;45206;-71
2022/07/07 09:25:43;;;;;;;;;1.00;1.00;;;;;;;;5099220;27;45400;-71
2022/07/07 09:28:09;;;;;;;;;3.00;3.00;;;;;;;;5117926;27;45378;-71
2022/07/07 09:30:40;;;;;;;;;1.00;1.00;;;;;;;;5114811;27;45408;-71
2022/07/07 09:33:05;;;;;;;;;2.00;0.00;;;;;;;;5105093;27;45334;-71
2022/07/07 09:38:17;;;;;;;;;4.00;2.00;;;;;;;;5119524;27;45423;-70
2022/07/07 09:40:52;;;;;;;;;1.00;1.00;;;;;;;;5119646;27;45469;-70
2022/07/07 09:43:17;;;;;;;;;0.67;0.67;;;;;;;;5119555;27;45452;-70
2022/07/07 09:45:45;;;;;;;;;0.33;0.33;;;;;;;;5108455;27;45380;-70
2022/07/07 09:48:11;;;;;;;;;1.00;1.00;;;;;;;;5114012;27;45517;-70
2022/07/07 09:50:37;;;;;;;;;0.67;0.67;;;;;;;;5114599;27;45413;-68
2022/07/07 09:53:07;;;;;;;;;3.00;0.00;;;;;;;;5119612;27;45402;-69
2022/07/07 09:55:32;;;;;;;;;1.33;1.00;;;;;;;;5118193;27;46426;-69
2022/07/07 09:57:57;;;;;;;;;0.00;0.00;;;;;;;;5119202;27;45329;-70
2022/07/07 10:00:22;;;;;;;;;1.00;1.00;;;;;;;;5119249;27;45834;-69
2022/07/07 10:02:49;;;;;;;;;3.00;2.00;;;;;;;;5119021;27;45421;-71
2022/07/07 10:05:16;;;;;;;;;1.00;1.00;;;;;;;;5118880;27;45582;-71
2022/07/07 10:07:42;;;;;;;;;0.00;0.00;;;;;;;;5114344;27;45772;-70
2022/07/07 10:10:12;;;;;;;;;3.00;1.67;;;;;;;;5119965;27;45382;-69
2022/07/07 10:12:41;;;;;;;;;0.00;0.00;;;;;;;;5119283;27;45414;-71
2022/07/07 10:15:13;;;;;;;;;2.00;0.00;;;;;;;;5098572;27;45493;-72
2022/07/07 10:17:39;;;;;;;;;0.00;0.00;;;;;;;;5098176;27;45301;-74
2022/07/07 10:20:05;;;;;;;;;2.00;0.00;;;;;;;;5098353;27;45278;-71
2022/07/07 10:22:30;;;;;;;;;0.00;0.00;;;;;;;;5098476;27;45575;-70
2022/07/07 10:25:00;;;;;;;;;2.00;2.00;;;;;;;;5098185;27;46140;-71
2022/07/07 10:27:26;;;;;;;;;0.00;0.00;;;;;;;;5105374;27;46632;-70
2022/07/07 10:29:55;;;;;;;;;1.00;1.00;;;;;;;;5118841;27;45354;-70
2022/07/07 10:32:39;;;;;;;;;0.00;0.00;;;;;;;;5118929;27;45345;-70
2022/07/07 10:35:11;;;;;;;;;0.00;0.00;;;;;;;;5102128;27;45355;-70
2022/07/07 10:37:42;;;;;;;;;0.00;0.00;;;;;;;;5109437;27;45526;-70
2022/07/07 10:40:11;;;;;;;;;0.67;0.00;;;;;;;;5107189;27;45650;-71
2022/07/07 10:42:51;;;;;;;;;0.00;0.00;;;;;;;;5097512;27;45568;-72
2022/07/07 10:45:17;;;;;;;;;2.00;1.00;;;;;;;;5097176;27;45559;-71
2022/07/07 10:47:42;;;;;;;;;0.00;0.00;;;;;;;;5097021;27;45442;-72
2022/07/07 10:50:28;;;;;;;;;0.00;0.00;;;;;;;;5109611;27;45438;-72
2022/07/07 10:52:53;;;;;;;;;0.00;0.00;;;;;;;;5108492;27;45379;-71
2022/07/07 10:55:18;;;;;;;;;1.00;0.00;;;;;;;;5104927;27;46156;-72
2022/07/07 10:57:44;;;;;;;;;2.00;1.00;;;;;;;;5118666;27;45574;-72
2022/07/07 11:00:11;;;;;;;;;0.00;0.00;;;;;;;;5120851;27;45469;-70
2022/07/07 11:02:47;;;;;;;;;0.00;0.00;;;;;;;;5101746;27;45698;-71
2022/07/07 11:05:15;;;;;;;;;0.00;0.00;;;;;;;;5100710;27;45672;-71
2022/07/07 11:08:03;;;;;;;;;0.00;0.00;;;;;;;;5100845;27;45659;-71
2022/07/07 11:10:47;;;;;;;;;1.00;0.00;;;;;;;;5100960;27;45386;-70
2022/07/07 11:13:13;;;;;;;;;0.67;0.33;;;;;;;;5100843;27;45429;-71
2022/07/07 11:15:39;;;;;;;;;2.33;0.00;;;;;;;;5100946;27;46368;-71
2022/07/07 11:18:04;;;;;;;;;0.00;0.00;;;;;;;;5100692;27;45287;-70
2022/07/07 11:20:30;;;;;;;;;18.33;14.00;;;;;;;;5100764;27;45215;-71
2022/07/07 11:23:15;;;;;;;;;2.33;1.00;;;;;;;;5101018;27;45456;-71
2022/07/07 11:25:41;;;;;;;;;1.00;1.00;;;;;;;;5110455;27;45466;-71
2022/07/07 11:28:07;;;;;;;;;1.00;1.00;;;;;;;;5113394;27;45219;-71
2022/07/07 11:30:33;;;;;;;;;1.00;1.00;;;;;;;;5100272;27;45377;-69
2022/07/07 11:32:59;;;;;;;;;1.33;1.33;;;;;;;;5100504;27;45624;-70
2022/07/07 11:35:28;;;;;;;;;1.00;1.00;;;;;;;;5100315;27;46561;-69
2022/07/07 11:37:53;;;;;;;;;2.00;0.00;;;;;;;;5100303;27;45358;-70
2022/07/07 11:40:18;;;;;;;;;0.33;0.33;;;;;;;;5115269;27;45766;-70
2022/07/07 11:42:43;;;;;;;;;0.33;0.33;;;;;;;;5120080;27;45413;-70
2022/07/07 11:45:18;;;;;;;;;1.00;0.00;;;;;;;;5118911;27;46663;-71
2022/07/07 11:47:43;;;;;;;;;2.00;2.00;;;;;;;;5107917;27;45694;-70
2022/07/07 11:50:09;;;;;;;;;0.67;0.67;;;;;;;;5101519;27;45375;-70
2022/07/07 11:52:34;;;;;;;;;2.00;1.00;;;;;;;;5110460;27;45374;-70
2022/07/07 11:55:01;;;;;;;;;0.00;0.00;;;;;;;;5103682;27;46574;-70
2022/07/07 11:57:27;;;;;;;;;0.00;0.00;;;;;;;;5113621;27;45580;-70
2022/07/07 11:59:52;;;;;;;;;2.00;0.00;;;;;;;;5110865;27;45920;-69
2022/07/07 12:02:18;;;;;;;;;0.00;0.00;;;;;;;;5100428;27;45408;-68
2022/07/07 12:04:45;;;;;;;;;1.00;1.00;;;;;;;;5110078;27;45454;-68
2022/07/07 12:07:10;;;;;;;;;1.00;1.00;;;;;;;;5099798;27;45653;-68
2022/07/07 12:09:36;;;;;;;;;3.00;1.00;;;;;;;;5099091;27;45370;-70
2022/07/07 12:12:01;;;;;;;;;0.00;0.00;;;;;;;;5108487;27;45414;-70
2022/07/07 12:14:27;;;;;;;;;0.00;0.00;;;;;;;;5101264;27;46517;-70
2022/07/07 12:16:52;;;;;;;;;2.33;1.00;;;;;;;;5118485;27;45427;-69
2022/07/07 12:19:18;;;;;;;;;2.00;1.67;;;;;;;;5101412;27;45470;-70
2022/07/07 12:21:43;;;;;;;;;4.33;1.00;;;;;;;;5099742;27;45323;-69
2022/07/07 12:24:11;;;;;;;;;2.00;0.67;;;;;;;;5099262;27;45511;-69
2022/07/07 12:26:46;;;;;;;;;1.33;1.33;;;;;;;;5116347;27;45362;-69
2022/07/07 12:29:11;;;;;;;;;8.67;5.33;;;;;;;;5119724;27;45714;-70
2022/07/07 12:31:36;;;;;;;;;1.00;1.00;;;;;;;;5109122;27;45306;-69
2022/07/07 12:34:12;;;;;;;;;0.67;0.00;;;;;;;;5098648;27;45415;-68
2022/07/07 12:36:38;;;;;;;;;1.00;0.00;;;;;;;;5099347;27;45439;-68
2022/07/07 12:39:04;;;;;;;;;1.00;1.00;;;;;;;;5109307;27;45525;-70
2022/07/07 12:41:32;;;;;;;;;1.33;1.00;;;;;;;;5120206;27;45510;-69
2022/07/07 12:44:16;;;;;;;;;3.67;0.67;;;;;;;;5118524;27;46509;-71
2022/07/07 12:46:42;;;;;;;;;2.00;0.00;;;;;;;;5117812;27;45394;-71
2022/07/07 12:49:07;;;;;;;;;2.00;1.00;;;;;;;;5119679;27;45465;-71
2022/07/07 12:51:33;;;;;;;;;2.00;2.00;;;;;;;;5120053;27;45770;-69
2022/07/07 12:53:58;;;;;;;;;2.00;0.00;;;;;;;;5119569;27;47283;-71
2022/07/07 12:56:31;;;;;;;;;1.00;1.00;;;;;;;;5119389;27;45832;-71
2022/07/07 12:58:56;;;;;;;;;1.67;0.00;;;;;;;;5123611;27;45463;-71
2022/07/07 13:01:25;;;;;;;;;4.00;2.00;;;;;;;;5119849;27;45391;-73
2022/07/07 13:03:52;;;;;;;;;0.67;0.00;;;;;;;;5118795;27;46471;-72
2022/07/07 13:06:18;;;;;;;;;0.00;0.00;;;;;;;;5140248;27;45341;-71
2022/07/07 13:08:44;;;;;;;;;0.00;0.00;;;;;;;;5135525;27;45443;-71
2022/07/07 13:11:10;;;;;;;;;0.00;0.00;;;;;;;;5118577;27;45340;-71
2022/07/07 13:13:35;;;;;;;;;0.00;0.00;;;;;;;;5122426;27;46543;-71
2022/07/07 13:16:01;;;;;;;;;0.00;0.00;;;;;;;;5128172;27;45418;-72
2022/07/07 13:18:26;;;;;;;;;3.33;1.67;;;;;;;;5140052;27;45418;-71
2022/07/07 13:20:53;;;;;;;;;2.00;0.67;;;;;;;;5126583;27;45399;-72
2022/07/07 13:23:18;;;;;;;;;0.67;0.00;;;;;;;;5124971;27;46213;-73
2022/07/07 13:25:43;;;;;;;;;0.00;0.00;;;;;;;;5139856;27;45543;-71
2022/07/07 13:28:09;;;;;;;;;3.00;1.00;;;;;;;;5132910;27;45416;-71
2022/07/07 13:30:34;;;;;;;;;1.67;0.00;;;;;;;;5119660;27;45776;-71
2022/07/07 13:32:59;;;;;;;;;0.00;0.00;;;;;;;;5119247;27;47053;-71
2022/07/07 13:35:24;;;;;;;;;2.00;1.67;;;;;;;;5119032;27;45299;-72
2022/07/07 13:37:50;;;;;;;;;3.00;1.00;;;;;;;;5123397;27;45370;-73
2022/07/07 13:40:15;;;;;;;;;0.67;0.00;;;;;;;;5119812;27;45379;-72
2022/07/07 13:42:40;;;;;;;;;0.00;0.00;;;;;;;;5118889;27;46395;-72
2022/07/07 13:45:06;;;;;;;;;0.00;0.00;;;;;;;;5132367;27;45385;-71
2022/07/07 13:47:31;;;;;;;;;1.00;1.00;;;;;;;;5139968;27;45525;-72
2022/07/07 13:49:59;;;;;;;;;5.00;5.00;;;;;;;;5140444;27;45149;-72
2022/07/07 13:52:24;;;;;;;;;4.00;3.00;;;;;;;;5139801;27;45595;-72
2022/07/07 13:54:49;;;;;;;;;0.00;0.00;;;;;;;;5139482;27;45399;-73
2022/07/07 13:57:15;;;;;;;;;2.00;2.00;;;;;;;;5140117;27;45296;-71
2022/07/07 13:59:41;;;;;;;;;1.33;1.33;;;;;;;;5128409;27;45351;-70
2022/07/07 14:02:06;;;;;;;;;0.00;0.00;;;;;;;;5118419;27;46869;-71
2022/07/07 14:04:31;;;;;;;;;1.33;1.33;;;;;;;;5117297;27;45767;-70
2022/07/07 14:06:57;;;;;;;;;2.00;2.00;;;;;;;;5117178;27;45656;-72
2022/07/07 14:09:22;;;;;;;;;1.00;1.00;;;;;;;;5118682;27;45375;-71
2022/07/07 14:11:48;;;;;;;;;1.67;1.67;;;;;;;;5117975;27;46480;-72
2022/07/07 14:14:13;;;;;;;;;3.67;0.67;;;;;;;;5117239;27;45351;-74
2022/07/07 14:16:38;;;;;;;;;0.67;0.00;;;;;;;;5118424;27;45524;-71
2022/07/07 14:19:04;;;;;;;;;1.67;1.00;;;;;;;;5118158;27;45480;-73
2022/07/07 14:21:29;;;;;;;;;0.33;0.00;;;;;;;;5118319;27;45750;-71
2022/07/07 14:23:54;;;;;;;;;2.67;0.33;;;;;;;;5118238;27;45309;-71
2022/07/07 14:26:20;;;;;;;;;0.00;0.00;;;;;;;;5118647;27;45440;-71
2022/07/07 14:28:46;;;;;;;;;1.00;1.00;;;;;;;;5118770;27;45564;-71
2022/07/07 14:31:11;;;;;;;;;0.00;0.00;;;;;;;;5118047;27;46476;-71
2022/07/07 14:33:37;;;;;;;;;1.00;1.00;;;;;;;;5116517;27;45384;-70
2022/07/07 14:36:02;;;;;;;;;0.00;0.00;;;;;;;;5118367;27;45407;-71
2022/07/07 14:38:27;;;;;;;;;3.00;2.00;;;;;;;;5118569;27;45339;-70
2022/07/07 14:40:53;;;;;;;;;0.67;0.67;;;;;;;;5118084;27;46236;-70
2022/07/07 14:43:18;;;;;;;;;0.67;0.00;;;;;;;;5118000;27;45424;-70